sensor_id;sensor_type;location;lat;lon;timestamp;P1;durP1;ratioP1;P2;durP2;ratioP2
22040;SDS011;11184;52.444;13.578;2022-08-21T00:02:14;10.40;;;9.40;;
22040;SDS011;11184;52.444;13.578;2022-08-21T00:04:59;11.35;;;9.15;;
22040;SDS011;11184;52.444;13.578;2022-08-21T00:07:44;9.38;;;8.48;;
22040;SDS011;11184;52.444;13.578;2022-08-21T00:10:29;10.38;;;8.48;;
22040;SDS011;11184;52.444;13.578;2022-08-21T00:13:14;10.75;;;9.65;;
22040;SDS011;11184;52.444;13.578;2022-08-21T00:15:59;9.70;;;8.70;;
22040;SDS011;11184;52.444;13.578;2022-08-21T00:18:44;8.82;;;7.82;;
22040;SDS011;11184;52.444;13.578;2022-08-21T00:21:29;8.73;;;7.88;;
22040;SDS011;11184;52.444;13.578;2022-08-21T00:24:13;10.10;;;8.30;;
22040;SDS011;11184;52.444;13.578;2022-08-21T00:26:58;11.18;;;8.93;;
22040;SDS011;11184;52.444;13.578;2022-08-21T00:29:43;9.05;;;7.93;;
22040;SDS011;11184;52.444;13.578;2022-08-21T00:32:27;9.25;;;8.40;;
22040;SDS011;11184;52.444;13.578;2022-08-21T00:35:15;10.25;;;9.07;;
22040;SDS011;11184;52.444;13.578;2022-08-21T00:38:00;9.02;;;8.23;;
22040;SDS011;11184;52.444;13.578;2022-08-21T00:40:47;8.38;;;7.68;;
22040;SDS011;11184;52.444;13.578;2022-08-21T00:43:33;9.35;;;7.75;;
22040;SDS011;11184;52.444;13.578;2022-08-21T00:46:18;10.48;;;7.32;;
22040;SDS011;11184;52.444;13.578;2022-08-21T00:49:04;9.80;;;7.25;;
22040;SDS011;11184;52.444;13.578;2022-08-21T00:51:52;7.72;;;6.90;;
22040;SDS011;11184;52.444;13.578;2022-08-21T00:54:37;7.63;;;6.93;;
22040;SDS011;11184;52.444;13.578;2022-08-21T00:57:26;8.38;;;7.68;;
22040;SDS011;11184;52.444;13.578;2022-08-21T01:00:13;10.57;;;8.50;;
22040;SDS011;11184;52.444;13.578;2022-08-21T01:03:00;7.68;;;7.07;;
22040;SDS011;11184;52.444;13.578;2022-08-21T01:05:45;9.30;;;6.88;;
22040;SDS011;11184;52.444;13.578;2022-08-21T01:08:30;7.68;;;6.88;;
22040;SDS011;11184;52.444;13.578;2022-08-21T01:11:15;9.57;;;6.45;;
22040;SDS011;11184;52.444;13.578;2022-08-21T01:14:00;7.18;;;6.50;;
22040;SDS011;11184;52.444;13.578;2022-08-21T01:16:46;8.10;;;7.40;;
22040;SDS011;11184;52.444;13.578;2022-08-21T01:19:32;8.57;;;7.22;;
22040;SDS011;11184;52.444;13.578;2022-08-21T01:22:17;8.93;;;7.00;;
22040;SDS011;11184;52.444;13.578;2022-08-21T01:25:04;10.40;;;7.45;;
22040;SDS011;11184;52.444;13.578;2022-08-21T01:27:48;7.75;;;6.63;;
22040;SDS011;11184;52.444;13.578;2022-08-21T01:30:33;8.30;;;6.55;;
22040;SDS011;11184;52.444;13.578;2022-08-21T01:33:20;6.97;;;6.13;;
22040;SDS011;11184;52.444;13.578;2022-08-21T01:36:06;8.60;;;7.30;;
22040;SDS011;11184;52.444;13.578;2022-08-21T01:38:51;7.00;;;6.30;;
22040;SDS011;11184;52.444;13.578;2022-08-21T01:41:35;6.75;;;6.15;;
22040;SDS011;11184;52.444;13.578;2022-08-21T01:44:21;6.97;;;6.38;;
22040;SDS011;11184;52.444;13.578;2022-08-21T01:47:07;7.40;;;6.72;;
22040;SDS011;11184;52.444;13.578;2022-08-21T01:49:52;8.32;;;6.28;;
22040;SDS011;11184;52.444;13.578;2022-08-21T01:52:36;6.63;;;6.03;;
22040;SDS011;11184;52.444;13.578;2022-08-21T01:55:21;7.55;;;6.45;;
22040;SDS011;11184;52.444;13.578;2022-08-21T01:58:06;8.93;;;5.55;;
22040;SDS011;11184;52.444;13.578;2022-08-21T02:00:51;6.47;;;5.90;;
22040;SDS011;11184;52.444;13.578;2022-08-21T02:03:36;8.10;;;6.07;;
22040;SDS011;11184;52.444;13.578;2022-08-21T02:06:21;7.05;;;6.35;;
22040;SDS011;11184;52.444;13.578;2022-08-21T02:09:06;9.25;;;6.53;;
22040;SDS011;11184;52.444;13.578;2022-08-21T02:11:51;6.20;;;5.55;;
22040;SDS011;11184;52.444;13.578;2022-08-21T02:14:36;10.18;;;6.63;;
22040;SDS011;11184;52.444;13.578;2022-08-21T02:17:21;10.85;;;6.85;;
22040;SDS011;11184;52.444;13.578;2022-08-21T02:20:06;6.13;;;5.07;;
22040;SDS011;11184;52.444;13.578;2022-08-21T02:22:51;10.80;;;6.03;;
22040;SDS011;11184;52.444;13.578;2022-08-21T02:25:36;6.43;;;5.55;;
22040;SDS011;11184;52.444;13.578;2022-08-21T02:28:21;5.63;;;5.20;;
22040;SDS011;11184;52.444;13.578;2022-08-21T02:31:05;5.05;;;4.65;;
22040;SDS011;11184;52.444;13.578;2022-08-21T02:33:50;5.65;;;5.00;;
22040;SDS011;11184;52.444;13.578;2022-08-21T02:36:35;7.65;;;5.32;;
22040;SDS011;11184;52.444;13.578;2022-08-21T02:39:20;6.28;;;5.32;;
22040;SDS011;11184;52.444;13.578;2022-08-21T02:42:05;9.45;;;4.97;;
22040;SDS011;11184;52.444;13.578;2022-08-21T02:44:49;7.38;;;5.45;;
22040;SDS011;11184;52.444;13.578;2022-08-21T02:47:34;10.45;;;6.28;;
22040;SDS011;11184;52.444;13.578;2022-08-21T02:50:23;5.80;;;5.30;;
22040;SDS011;11184;52.444;13.578;2022-08-21T02:53:09;9.00;;;6.00;;
22040;SDS011;11184;52.444;13.578;2022-08-21T02:55:56;5.72;;;5.22;;
22040;SDS011;11184;52.444;13.578;2022-08-21T02:58:46;5.15;;;4.65;;
22040;SDS011;11184;52.444;13.578;2022-08-21T03:01:31;6.80;;;5.97;;
22040;SDS011;11184;52.444;13.578;2022-08-21T03:04:16;6.97;;;5.22;;
22040;SDS011;11184;52.444;13.578;2022-08-21T03:07:00;7.75;;;5.72;;
22040;SDS011;11184;52.444;13.578;2022-08-21T03:09:45;8.50;;;5.20;;
22040;SDS011;11184;52.444;13.578;2022-08-21T03:12:29;7.70;;;5.82;;
22040;SDS011;11184;52.444;13.578;2022-08-21T03:15:16;7.47;;;6.68;;
22040;SDS011;11184;52.444;13.578;2022-08-21T03:18:01;6.15;;;5.65;;
22040;SDS011;11184;52.444;13.578;2022-08-21T03:20:45;5.43;;;4.50;;
22040;SDS011;11184;52.444;13.578;2022-08-21T03:23:30;9.52;;;5.80;;
22040;SDS011;11184;52.444;13.578;2022-08-21T03:26:16;8.18;;;5.70;;
22040;SDS011;11184;52.444;13.578;2022-08-21T03:29:01;6.32;;;5.70;;
22040;SDS011;11184;52.444;13.578;2022-08-21T03:31:46;6.50;;;4.88;;
22040;SDS011;11184;52.444;13.578;2022-08-21T03:34:30;8.48;;;4.72;;
22040;SDS011;11184;52.444;13.578;2022-08-21T03:37:15;4.82;;;4.22;;
22040;SDS011;11184;52.444;13.578;2022-08-21T03:40:03;6.25;;;5.47;;
22040;SDS011;11184;52.444;13.578;2022-08-21T03:42:48;5.03;;;4.57;;
22040;SDS011;11184;52.444;13.578;2022-08-21T03:45:32;5.05;;;4.55;;
22040;SDS011;11184;52.444;13.578;2022-08-21T03:48:18;11.48;;;3.72;;
22040;SDS011;11184;52.444;13.578;2022-08-21T03:51:03;6.80;;;3.90;;
22040;SDS011;11184;52.444;13.578;2022-08-21T03:53:48;5.32;;;4.22;;
22040;SDS011;11184;52.444;13.578;2022-08-21T03:56:32;7.30;;;4.93;;
22040;SDS011;11184;52.444;13.578;2022-08-21T03:59:17;9.73;;;4.95;;
22040;SDS011;11184;52.444;13.578;2022-08-21T04:02:03;5.47;;;3.72;;
22040;SDS011;11184;52.444;13.578;2022-08-21T04:04:47;4.95;;;3.60;;
22040;SDS011;11184;52.444;13.578;2022-08-21T04:07:32;5.32;;;3.95;;
22040;SDS011;11184;52.444;13.578;2022-08-21T04:10:18;7.07;;;4.13;;
22040;SDS011;11184;52.444;13.578;2022-08-21T04:13:03;6.72;;;3.75;;
22040;SDS011;11184;52.444;13.578;2022-08-21T04:15:48;7.78;;;3.38;;
22040;SDS011;11184;52.444;13.578;2022-08-21T04:18:32;4.93;;;3.58;;
22040;SDS011;11184;52.444;13.578;2022-08-21T04:21:17;5.55;;;4.10;;
22040;SDS011;11184;52.444;13.578;2022-08-21T04:24:02;4.13;;;3.30;;
22040;SDS011;11184;52.444;13.578;2022-08-21T04:26:47;5.03;;;3.63;;
22040;SDS011;11184;52.444;13.578;2022-08-21T04:29:32;7.72;;;3.95;;
22040;SDS011;11184;52.444;13.578;2022-08-21T04:32:23;7.03;;;3.88;;
22040;SDS011;11184;52.444;13.578;2022-08-21T04:35:09;9.95;;;3.25;;
22040;SDS011;11184;52.444;13.578;2022-08-21T04:37:54;6.90;;;4.05;;
22040;SDS011;11184;52.444;13.578;2022-08-21T04:40:39;5.53;;;3.22;;
22040;SDS011;11184;52.444;13.578;2022-08-21T04:43:23;14.68;;;4.05;;
22040;SDS011;11184;52.444;13.578;2022-08-21T04:46:08;6.05;;;3.78;;
22040;SDS011;11184;52.444;13.578;2022-08-21T04:48:53;11.77;;;4.38;;
22040;SDS011;11184;52.444;13.578;2022-08-21T04:51:38;4.68;;;2.97;;
22040;SDS011;11184;52.444;13.578;2022-08-21T04:54:23;5.43;;;3.40;;
22040;SDS011;11184;52.444;13.578;2022-08-21T04:57:08;6.85;;;3.03;;
22040;SDS011;11184;52.444;13.578;2022-08-21T04:59:54;4.65;;;2.72;;
22040;SDS011;11184;52.444;13.578;2022-08-21T05:02:39;5.05;;;2.70;;
22040;SDS011;11184;52.444;13.578;2022-08-21T05:05:24;11.70;;;3.50;;
22040;SDS011;11184;52.444;13.578;2022-08-21T05:08:09;4.40;;;2.38;;
22040;SDS011;11184;52.444;13.578;2022-08-21T05:10:55;6.43;;;2.83;;
22040;SDS011;11184;52.444;13.578;2022-08-21T05:13:40;6.25;;;2.60;;
22040;SDS011;11184;52.444;13.578;2022-08-21T05:16:24;10.77;;;2.55;;
22040;SDS011;11184;52.444;13.578;2022-08-21T05:19:10;4.78;;;2.83;;
22040;SDS011;11184;52.444;13.578;2022-08-21T05:21:54;5.70;;;2.20;;
22040;SDS011;11184;52.444;13.578;2022-08-21T05:24:39;7.25;;;3.10;;
22040;SDS011;11184;52.444;13.578;2022-08-21T05:27:24;7.72;;;2.72;;
22040;SDS011;11184;52.444;13.578;2022-08-21T05:30:09;3.53;;;2.08;;
22040;SDS011;11184;52.444;13.578;2022-08-21T05:32:57;4.38;;;2.70;;
22040;SDS011;11184;52.444;13.578;2022-08-21T05:35:43;8.57;;;2.75;;
22040;SDS011;11184;52.444;13.578;2022-08-21T05:38:27;8.27;;;2.58;;
22040;SDS011;11184;52.444;13.578;2022-08-21T05:41:12;6.45;;;2.45;;
22040;SDS011;11184;52.444;13.578;2022-08-21T05:43:56;4.53;;;2.22;;
22040;SDS011;11184;52.444;13.578;2022-08-21T05:46:41;3.88;;;2.03;;
22040;SDS011;11184;52.444;13.578;2022-08-21T05:49:26;7.25;;;2.55;;
22040;SDS011;11184;52.444;13.578;2022-08-21T05:52:10;4.93;;;2.13;;
22040;SDS011;11184;52.444;13.578;2022-08-21T05:54:55;7.20;;;2.25;;
22040;SDS011;11184;52.444;13.578;2022-08-21T05:57:40;6.43;;;1.95;;
22040;SDS011;11184;52.444;13.578;2022-08-21T06:00:25;9.68;;;2.25;;
22040;SDS011;11184;52.444;13.578;2022-08-21T06:03:10;6.43;;;1.88;;
22040;SDS011;11184;52.444;13.578;2022-08-21T06:05:56;7.07;;;2.45;;
22040;SDS011;11184;52.444;13.578;2022-08-21T06:08:40;6.07;;;1.85;;
22040;SDS011;11184;52.444;13.578;2022-08-21T06:11:25;7.38;;;1.88;;
22040;SDS011;11184;52.444;13.578;2022-08-21T06:14:13;4.25;;;1.80;;
22040;SDS011;11184;52.444;13.578;2022-08-21T06:17:04;3.40;;;2.13;;
22040;SDS011;11184;52.444;13.578;2022-08-21T06:19:53;6.43;;;2.78;;
22040;SDS011;11184;52.444;13.578;2022-08-21T06:22:38;4.50;;;1.63;;
22040;SDS011;11184;52.444;13.578;2022-08-21T06:25:22;3.80;;;1.63;;
22040;SDS011;11184;52.444;13.578;2022-08-21T06:28:08;5.38;;;1.60;;
22040;SDS011;11184;52.444;13.578;2022-08-21T06:30:53;6.75;;;2.28;;
22040;SDS011;11184;52.444;13.578;2022-08-21T06:33:38;3.03;;;1.40;;
22040;SDS011;11184;52.444;13.578;2022-08-21T06:36:23;7.60;;;2.83;;
22040;SDS011;11184;52.444;13.578;2022-08-21T06:39:07;4.32;;;1.45;;
22040;SDS011;11184;52.444;13.578;2022-08-21T06:41:52;7.30;;;1.58;;
22040;SDS011;11184;52.444;13.578;2022-08-21T06:44:37;3.83;;;1.85;;
22040;SDS011;11184;52.444;13.578;2022-08-21T06:47:21;6.80;;;2.13;;
22040;SDS011;11184;52.444;13.578;2022-08-21T06:50:06;4.60;;;1.52;;
22040;SDS011;11184;52.444;13.578;2022-08-21T06:52:57;2.85;;;1.40;;
22040;SDS011;11184;52.444;13.578;2022-08-21T06:55:43;12.57;;;2.03;;
22040;SDS011;11184;52.444;13.578;2022-08-21T06:58:27;4.85;;;0.93;;
22040;SDS011;11184;52.444;13.578;2022-08-21T07:01:12;4.13;;;1.88;;
22040;SDS011;11184;52.444;13.578;2022-08-21T07:03:57;3.15;;;1.23;;
22040;SDS011;11184;52.444;13.578;2022-08-21T07:06:42;6.00;;;1.52;;
22040;SDS011;11184;52.444;13.578;2022-08-21T07:09:26;3.72;;;0.95;;
22040;SDS011;11184;52.444;13.578;2022-08-21T07:12:11;6.88;;;0.93;;
22040;SDS011;11184;52.444;13.578;2022-08-21T07:14:56;2.58;;;1.13;;
22040;SDS011;11184;52.444;13.578;2022-08-21T07:17:41;2.88;;;0.90;;
22040;SDS011;11184;52.444;13.578;2022-08-21T07:20:26;2.17;;;1.00;;
22040;SDS011;11184;52.444;13.578;2022-08-21T07:23:12;7.28;;;1.25;;
22040;SDS011;11184;52.444;13.578;2022-08-21T07:25:59;3.47;;;1.13;;
22040;SDS011;11184;52.444;13.578;2022-08-21T07:28:44;4.18;;;1.33;;
22040;SDS011;11184;52.444;13.578;2022-08-21T07:31:29;7.75;;;1.45;;
22040;SDS011;11184;52.444;13.578;2022-08-21T07:34:13;5.35;;;1.20;;
22040;SDS011;11184;52.444;13.578;2022-08-21T07:36:58;4.45;;;0.80;;
22040;SDS011;11184;52.444;13.578;2022-08-21T07:39:42;6.68;;;1.30;;
22040;SDS011;11184;52.444;13.578;2022-08-21T07:42:27;5.20;;;1.08;;
22040;SDS011;11184;52.444;13.578;2022-08-21T07:45:12;6.68;;;1.83;;
22040;SDS011;11184;52.444;13.578;2022-08-21T07:47:57;4.80;;;1.05;;
22040;SDS011;11184;52.444;13.578;2022-08-21T07:50:42;3.35;;;1.13;;
22040;SDS011;11184;52.444;13.578;2022-08-21T07:53:27;7.93;;;1.38;;
22040;SDS011;11184;52.444;13.578;2022-08-21T07:56:11;6.18;;;1.20;;
22040;SDS011;11184;52.444;13.578;2022-08-21T07:58:56;4.80;;;1.23;;
22040;SDS011;11184;52.444;13.578;2022-08-21T08:01:41;8.05;;;1.23;;
22040;SDS011;11184;52.444;13.578;2022-08-21T08:04:26;2.50;;;0.90;;
22040;SDS011;11184;52.444;13.578;2022-08-21T08:07:10;4.45;;;1.20;;
22040;SDS011;11184;52.444;13.578;2022-08-21T08:09:55;4.72;;;1.08;;
22040;SDS011;11184;52.444;13.578;2022-08-21T08:12:40;5.07;;;1.23;;
22040;SDS011;11184;52.444;13.578;2022-08-21T08:15:26;5.75;;;1.73;;
22040;SDS011;11184;52.444;13.578;2022-08-21T08:18:11;8.00;;;2.22;;
22040;SDS011;11184;52.444;13.578;2022-08-21T08:20:57;2.45;;;0.88;;
22040;SDS011;11184;52.444;13.578;2022-08-21T08:23:41;2.67;;;0.95;;
22040;SDS011;11184;52.444;13.578;2022-08-21T08:26:27;2.55;;;1.00;;
22040;SDS011;11184;52.444;13.578;2022-08-21T08:29:12;4.85;;;1.20;;
22040;SDS011;11184;52.444;13.578;2022-08-21T08:31:57;4.55;;;0.90;;
22040;SDS011;11184;52.444;13.578;2022-08-21T08:34:41;2.83;;;1.00;;
22040;SDS011;11184;52.444;13.578;2022-08-21T08:37:26;4.47;;;1.15;;
22040;SDS011;11184;52.444;13.578;2022-08-21T08:40:12;5.28;;;1.02;;
22040;SDS011;11184;52.444;13.578;2022-08-21T08:42:58;8.65;;;1.52;;
22040;SDS011;11184;52.444;13.578;2022-08-21T08:45:45;6.85;;;1.50;;
22040;SDS011;11184;52.444;13.578;2022-08-21T08:51:17;3.97;;;1.35;;
22040;SDS011;11184;52.444;13.578;2022-08-21T08:54:04;5.88;;;1.55;;
22040;SDS011;11184;52.444;13.578;2022-08-21T08:56:50;3.92;;;1.42;;
22040;SDS011;11184;52.444;13.578;2022-08-21T08:59:40;2.55;;;1.17;;
22040;SDS011;11184;52.444;13.578;2022-08-21T09:02:25;6.15;;;1.17;;
22040;SDS011;11184;52.444;13.578;2022-08-21T09:05:21;2.67;;;1.42;;
22040;SDS011;11184;52.444;13.578;2022-08-21T09:08:12;3.40;;;1.30;;
22040;SDS011;11184;52.444;13.578;2022-08-21T09:11:02;4.07;;;1.00;;
22040;SDS011;11184;52.444;13.578;2022-08-21T09:13:56;2.13;;;1.08;;
22040;SDS011;11184;52.444;13.578;2022-08-21T09:22:40;7.18;;;1.42;;
22040;SDS011;11184;52.444;13.578;2022-08-21T09:25:32;4.03;;;1.23;;
22040;SDS011;11184;52.444;13.578;2022-08-21T09:28:18;2.63;;;1.10;;
22040;SDS011;11184;52.444;13.578;2022-08-21T09:31:05;2.78;;;1.08;;
22040;SDS011;11184;52.444;13.578;2022-08-21T09:33:56;6.82;;;1.25;;
22040;SDS011;11184;52.444;13.578;2022-08-21T09:36:42;2.45;;;0.82;;
22040;SDS011;11184;52.444;13.578;2022-08-21T09:39:29;5.25;;;1.00;;
22040;SDS011;11184;52.444;13.578;2022-08-21T09:42:21;4.40;;;1.50;;
22040;SDS011;11184;52.444;13.578;2022-08-21T09:47:51;2.97;;;1.25;;
22040;SDS011;11184;52.444;13.578;2022-08-21T09:50:35;2.70;;;1.00;;
22040;SDS011;11184;52.444;13.578;2022-08-21T09:56:14;5.72;;;1.08;;
22040;SDS011;11184;52.444;13.578;2022-08-21T10:02:21;3.88;;;1.17;;
22040;SDS011;11184;52.444;13.578;2022-08-21T10:05:08;9.07;;;1.70;;
22040;SDS011;11184;52.444;13.578;2022-08-21T10:07:53;5.57;;;0.93;;
22040;SDS011;11184;52.444;13.578;2022-08-21T10:10:38;4.90;;;1.20;;
22040;SDS011;11184;52.444;13.578;2022-08-21T10:14:09;2.67;;;1.02;;
22040;SDS011;11184;52.444;13.578;2022-08-21T10:16:37;3.85;;;1.45;;
22040;SDS011;11184;52.444;13.578;2022-08-21T10:22:36;4.82;;;1.10;;
22040;SDS011;11184;52.444;13.578;2022-08-21T10:25:26;3.33;;;1.08;;
22040;SDS011;11184;52.444;13.578;2022-08-21T10:28:17;3.10;;;1.48;;
22040;SDS011;11184;52.444;13.578;2022-08-21T10:40:29;7.35;;;1.70;;
22040;SDS011;11184;52.444;13.578;2022-08-21T10:48:50;3.88;;;1.13;;
22040;SDS011;11184;52.444;13.578;2022-08-21T10:57:14;3.40;;;1.10;;
22040;SDS011;11184;52.444;13.578;2022-08-21T11:00:05;4.85;;;1.30;;
22040;SDS011;11184;52.444;13.578;2022-08-21T11:03:05;3.92;;;1.42;;
22040;SDS011;11184;52.444;13.578;2022-08-21T11:05:54;2.80;;;1.13;;
22040;SDS011;11184;52.444;13.578;2022-08-21T11:08:41;4.35;;;1.27;;
22040;SDS011;11184;52.444;13.578;2022-08-21T11:11:28;3.25;;;1.02;;
22040;SDS011;11184;52.444;13.578;2022-08-21T11:17:14;6.20;;;1.40;;
22040;SDS011;11184;52.444;13.578;2022-08-21T11:20:15;8.18;;;1.50;;
22040;SDS011;11184;52.444;13.578;2022-08-21T11:23:07;3.60;;;1.50;;
22040;SDS011;11184;52.444;13.578;2022-08-21T11:25:55;3.72;;;1.20;;
22040;SDS011;11184;52.444;13.578;2022-08-21T11:28:54;2.28;;;0.90;;
22040;SDS011;11184;52.444;13.578;2022-08-21T11:34:39;2.30;;;1.10;;
22040;SDS011;11184;52.444;13.578;2022-08-21T11:43:39;2.30;;;1.23;;
22040;SDS011;11184;52.444;13.578;2022-08-21T11:46:29;6.10;;;1.23;;
22040;SDS011;11184;52.444;13.578;2022-08-21T11:49:29;6.63;;;1.67;;
22040;SDS011;11184;52.444;13.578;2022-08-21T11:55:18;8.50;;;1.60;;
22040;SDS011;11184;52.444;13.578;2022-08-21T11:58:07;3.17;;;1.20;;
22040;SDS011;11184;52.444;13.578;2022-08-21T12:00:59;3.65;;;1.30;;
22040;SDS011;11184;52.444;13.578;2022-08-21T12:04:06;1.35;;;0.68;;
22040;SDS011;11184;52.444;13.578;2022-08-21T12:06:51;3.85;;;0.80;;
22040;SDS011;11184;52.444;13.578;2022-08-21T12:09:36;1.30;;;0.88;;
22040;SDS011;11184;52.444;13.578;2022-08-21T12:18:18;0.88;;;0.55;;
22040;SDS011;11184;52.444;13.578;2022-08-21T12:21:16;1.52;;;0.70;;
22040;SDS011;11184;52.444;13.578;2022-08-21T12:27:19;2.33;;;1.02;;
22040;SDS011;11184;52.444;13.578;2022-08-21T12:30:19;1.77;;;1.10;;
22040;SDS011;11184;52.444;13.578;2022-08-21T12:33:27;3.58;;;0.95;;
22040;SDS011;11184;52.444;13.578;2022-08-21T12:36:14;3.25;;;1.02;;
22040;SDS011;11184;52.444;13.578;2022-08-21T12:39:01;1.45;;;0.60;;
22040;SDS011;11184;52.444;13.578;2022-08-21T12:41:50;3.22;;;1.02;;
22040;SDS011;11184;52.444;13.578;2022-08-21T12:44:43;4.30;;;1.42;;
22040;SDS011;11184;52.444;13.578;2022-08-21T12:47:31;4.20;;;1.33;;
22040;SDS011;11184;52.444;13.578;2022-08-21T12:50:19;5.47;;;1.30;;
22040;SDS011;11184;52.444;13.578;2022-08-21T12:53:06;2.70;;;1.00;;
22040;SDS011;11184;52.444;13.578;2022-08-21T12:55:52;2.72;;;0.60;;
22040;SDS011;11184;52.444;13.578;2022-08-21T12:58:47;4.07;;;1.08;;
22040;SDS011;11184;52.444;13.578;2022-08-21T13:01:33;1.90;;;0.70;;
22040;SDS011;11184;52.444;13.578;2022-08-21T13:04:19;2.55;;;0.77;;
22040;SDS011;11184;52.444;13.578;2022-08-21T13:07:12;1.08;;;0.65;;
22040;SDS011;11184;52.444;13.578;2022-08-21T13:10:05;2.08;;;0.77;;
22040;SDS011;11184;52.444;13.578;2022-08-21T13:12:51;4.13;;;0.93;;
22040;SDS011;11184;52.444;13.578;2022-08-21T13:15:38;2.20;;;1.20;;
22040;SDS011;11184;52.444;13.578;2022-08-21T13:18:27;2.58;;;0.90;;
22040;SDS011;11184;52.444;13.578;2022-08-21T13:21:13;2.05;;;1.00;;
22040;SDS011;11184;52.444;13.578;2022-08-21T13:24:13;2.20;;;0.88;;
22040;SDS011;11184;52.444;13.578;2022-08-21T13:26:59;7.60;;;0.98;;
22040;SDS011;11184;52.444;13.578;2022-08-21T13:29:44;2.05;;;0.80;;
22040;SDS011;11184;52.444;13.578;2022-08-21T13:32:31;2.10;;;0.98;;
22040;SDS011;11184;52.444;13.578;2022-08-21T13:35:21;4.85;;;0.75;;
22040;SDS011;11184;52.444;13.578;2022-08-21T13:38:06;4.35;;;1.30;;
22040;SDS011;11184;52.444;13.578;2022-08-21T13:40:59;2.05;;;0.68;;
22040;SDS011;11184;52.444;13.578;2022-08-21T13:43:49;1.95;;;0.85;;
22040;SDS011;11184;52.444;13.578;2022-08-21T13:46:34;0.90;;;0.50;;
22040;SDS011;11184;52.444;13.578;2022-08-21T13:49:32;1.23;;;0.60;;
22040;SDS011;11184;52.444;13.578;2022-08-21T13:52:21;1.20;;;0.52;;
22040;SDS011;11184;52.444;13.578;2022-08-21T13:55:12;2.72;;;1.10;;
22040;SDS011;11184;52.444;13.578;2022-08-21T13:58:01;2.58;;;0.75;;
22040;SDS011;11184;52.444;13.578;2022-08-21T14:00:47;1.55;;;0.63;;
22040;SDS011;11184;52.444;13.578;2022-08-21T14:03:38;2.95;;;0.85;;
22040;SDS011;11184;52.444;13.578;2022-08-21T14:06:26;3.17;;;0.75;;
22040;SDS011;11184;52.444;13.578;2022-08-21T14:09:13;1.85;;;0.60;;
22040;SDS011;11184;52.444;13.578;2022-08-21T14:12:04;1.83;;;0.88;;
22040;SDS011;11184;52.444;13.578;2022-08-21T14:14:56;2.33;;;0.85;;
22040;SDS011;11184;52.444;13.578;2022-08-21T14:17:41;0.98;;;0.55;;
22040;SDS011;11184;52.444;13.578;2022-08-21T14:20:30;3.13;;;0.65;;
22040;SDS011;11184;52.444;13.578;2022-08-21T14:23:25;1.88;;;1.08;;
22040;SDS011;11184;52.444;13.578;2022-08-21T14:26:10;0.85;;;0.47;;
22040;SDS011;11184;52.444;13.578;2022-08-21T14:28:57;1.50;;;0.50;;
22040;SDS011;11184;52.444;13.578;2022-08-21T14:31:43;2.42;;;0.90;;
22040;SDS011;11184;52.444;13.578;2022-08-21T14:34:33;1.17;;;0.77;;
22040;SDS011;11184;52.444;13.578;2022-08-21T14:37:17;3.08;;;0.95;;
22040;SDS011;11184;52.444;13.578;2022-08-21T14:40:03;1.95;;;0.80;;
22040;SDS011;11184;52.444;13.578;2022-08-21T14:42:48;3.83;;;0.77;;
22040;SDS011;11184;52.444;13.578;2022-08-21T14:45:33;5.07;;;1.05;;
22040;SDS011;11184;52.444;13.578;2022-08-21T14:48:20;3.58;;;1.40;;
22040;SDS011;11184;52.444;13.578;2022-08-21T14:51:04;4.53;;;1.27;;
22040;SDS011;11184;52.444;13.578;2022-08-21T14:53:50;6.00;;;1.58;;
22040;SDS011;11184;52.444;13.578;2022-08-21T14:56:34;2.92;;;0.80;;
22040;SDS011;11184;52.444;13.578;2022-08-21T14:59:19;2.00;;;1.20;;
22040;SDS011;11184;52.444;13.578;2022-08-21T15:02:05;3.17;;;1.27;;
22040;SDS011;11184;52.444;13.578;2022-08-21T15:04:50;4.30;;;1.88;;
22040;SDS011;11184;52.444;13.578;2022-08-21T15:07:34;3.38;;;1.27;;
22040;SDS011;11184;52.444;13.578;2022-08-21T15:10:19;2.97;;;1.10;;
22040;SDS011;11184;52.444;13.578;2022-08-21T15:13:04;5.32;;;1.27;;
22040;SDS011;11184;52.444;13.578;2022-08-21T15:15:50;2.58;;;0.93;;
22040;SDS011;11184;52.444;13.578;2022-08-21T15:18:38;1.65;;;1.00;;
22040;SDS011;11184;52.444;13.578;2022-08-21T15:21:23;1.85;;;1.02;;
22040;SDS011;11184;52.444;13.578;2022-08-21T15:24:08;1.70;;;0.85;;
22040;SDS011;11184;52.444;13.578;2022-08-21T15:26:53;6.18;;;1.38;;
22040;SDS011;11184;52.444;13.578;2022-08-21T15:29:38;3.45;;;0.70;;
22040;SDS011;11184;52.444;13.578;2022-08-21T15:32:25;3.67;;;1.10;;
22040;SDS011;11184;52.444;13.578;2022-08-21T15:35:10;2.55;;;0.90;;
22040;SDS011;11184;52.444;13.578;2022-08-21T15:37:55;1.77;;;0.80;;
22040;SDS011;11184;52.444;13.578;2022-08-21T15:40:40;5.10;;;1.00;;
22040;SDS011;11184;52.444;13.578;2022-08-21T15:43:26;3.60;;;1.30;;
22040;SDS011;11184;52.444;13.578;2022-08-21T15:46:12;1.60;;;0.60;;
22040;SDS011;11184;52.444;13.578;2022-08-21T15:48:57;3.72;;;1.40;;
22040;SDS011;11184;52.444;13.578;2022-08-21T15:51:42;3.53;;;1.30;;
22040;SDS011;11184;52.444;13.578;2022-08-21T15:54:27;1.60;;;1.00;;
22040;SDS011;11184;52.444;13.578;2022-08-21T15:57:12;4.60;;;1.30;;
22040;SDS011;11184;52.444;13.578;2022-08-21T15:59:59;2.35;;;1.42;;
22040;SDS011;11184;52.444;13.578;2022-08-21T16:02:53;5.65;;;2.22;;
22040;SDS011;11184;52.444;13.578;2022-08-21T16:05:39;3.67;;;1.60;;
22040;SDS011;11184;52.444;13.578;2022-08-21T16:08:25;5.07;;;1.40;;
22040;SDS011;11184;52.444;13.578;2022-08-21T16:11:10;5.45;;;1.90;;
22040;SDS011;11184;52.444;13.578;2022-08-21T16:13:55;2.78;;;1.42;;
22040;SDS011;11184;52.444;13.578;2022-08-21T16:16:40;2.03;;;1.23;;
22040;SDS011;11184;52.444;13.578;2022-08-21T16:19:26;7.07;;;2.85;;
22040;SDS011;11184;52.444;13.578;2022-08-21T16:22:11;3.78;;;1.92;;
22040;SDS011;11184;52.444;13.578;2022-08-21T16:24:56;3.38;;;1.77;;
22040;SDS011;11184;52.444;13.578;2022-08-21T16:27:41;3.85;;;1.85;;
22040;SDS011;11184;52.444;13.578;2022-08-21T16:30:28;5.65;;;2.40;;
22040;SDS011;11184;52.444;13.578;2022-08-21T16:33:18;8.65;;;2.03;;
22040;SDS011;11184;52.444;13.578;2022-08-21T16:36:04;5.40;;;2.88;;
22040;SDS011;11184;52.444;13.578;2022-08-21T16:38:49;4.32;;;2.80;;
22040;SDS011;11184;52.444;13.578;2022-08-21T16:41:36;6.63;;;3.85;;
22040;SDS011;11184;52.444;13.578;2022-08-21T16:44:22;5.72;;;1.60;;
22040;SDS011;11184;52.444;13.578;2022-08-21T16:47:07;3.80;;;1.52;;
22040;SDS011;11184;52.444;13.578;2022-08-21T16:49:51;5.50;;;2.42;;
22040;SDS011;11184;52.444;13.578;2022-08-21T16:52:36;3.88;;;1.60;;
22040;SDS011;11184;52.444;13.578;2022-08-21T16:55:21;7.63;;;2.30;;
22040;SDS011;11184;52.444;13.578;2022-08-21T16:58:08;4.63;;;2.25;;
22040;SDS011;11184;52.444;13.578;2022-08-21T17:00:53;3.35;;;1.67;;
22040;SDS011;11184;52.444;13.578;2022-08-21T17:03:41;6.78;;;3.25;;
22040;SDS011;11184;52.444;13.578;2022-08-21T17:06:27;9.80;;;3.90;;
22040;SDS011;11184;52.444;13.578;2022-08-21T17:09:13;3.72;;;2.08;;
22040;SDS011;11184;52.444;13.578;2022-08-21T17:11:58;4.05;;;1.85;;
22040;SDS011;11184;52.444;13.578;2022-08-21T17:14:43;5.03;;;2.08;;
22040;SDS011;11184;52.444;13.578;2022-08-21T17:17:27;6.82;;;1.50;;
22040;SDS011;11184;52.444;13.578;2022-08-21T17:20:12;3.95;;;1.45;;
22040;SDS011;11184;52.444;13.578;2022-08-21T17:22:58;6.07;;;1.90;;
22040;SDS011;11184;52.444;13.578;2022-08-21T17:25:43;3.00;;;1.73;;
22040;SDS011;11184;52.444;13.578;2022-08-21T17:28:30;7.90;;;2.22;;
22040;SDS011;11184;52.444;13.578;2022-08-21T17:31:15;4.82;;;2.55;;
22040;SDS011;11184;52.444;13.578;2022-08-21T17:34:00;7.95;;;2.60;;